Time,TemperatureC,DewpointC,PressurehPa,WindDirection,WindDirectionDegrees,WindSpeedKMH,WindSpeedGustKMH,Humidity,HourlyPrecipMM,Conditions,Clouds,dailyrainMM,SolarRadiationWatts/m^2,UVIndex,SoftwareType,DateUTC
2026-08-31 00:03:07,12.9,14.1,1002.3,NNW,337,0,0,74.7,0.0,,,0.0,2,0,n/a,2026-08-30T22:03:07Z
2026-08-31 00:09:07,12.9,14.1,1002.3,NNW,337,0,0,74.8,0.0,,,0.0,2,0,n/a,2026-08-30T22:09:07Z
2026-08-31 00:12:07,12.6,14,1002.3,NNW,337,0,0,74.5,0.0,,,0.0,0,0,n/a,2026-08-30T22:12:07Z
2026-08-31 00:18:07,12.7,13.9,1002.3,NNW,337,0,0,74.6,0.0,,,0.0,0,0,n/a,2026-08-30T22:18:07Z
2026-08-31 00:24:07,12.7,14,1002.0,NNW,337,0,0,75.3,0.0,,,0.0,2,0,n/a,2026-08-30T22:24:07Z
2026-08-31 00:27:06,12.7,14,1002.0,NNW,337,1.2,1.3,75.7,0.0,,,0.0,0,0,n/a,2026-08-30T22:27:06Z
2026-08-31 00:33:07,12.5,13.8,1001.8,NNW,337,0,0,75.2,0.0,,,0.0,2,0,n/a,2026-08-30T22:33:07Z
2026-08-31 00:39:03,12.7,13.8,1001.8,NNW,337,0,0,75.8,0.0,,,0.0,2,0,n/a,2026-08-30T22:39:03Z
2026-08-31 00:42:07,12.6,14,1002.0,South,180,4.2,4.6,76.9,0.0,,,0.0,2,0,n/a,2026-08-30T22:42:07Z
2026-08-31 00:48:07,12.7,13.9,1002.0,South,180,0.2,0.7,76.8,0.0,,,0.0,2,0,n/a,2026-08-30T22:48:07Z
2026-08-31 00:54:07,12.4,13.8,1002.0,South,180,0,0,76.4,0.0,,,0.0,0,0,n/a,2026-08-30T22:54:07Z
2026-08-31 00:57:03,12.2,13.8,1001.8,North,0,0,0,76.2,0.0,,,0.0,2,0,n/a,2026-08-30T22:57:03Z
2026-08-31 01:03:07,12.2,13.5,1001.8,South,180,0,0,76,0.0,,,0.0,2,0,n/a,2026-08-30T23:03:07Z
2026-08-31 01:09:07,12,13.5,1001.8,South,180,0,0,76.3,0.0,,,0.0,2,0,n/a,2026-08-30T23:09:07Z
2026-08-31 01:12:07,11.9,13.5,1001.8,South,180,1.2,1.3,76.7,0.0,,,0.0,2,0,n/a,2026-08-30T23:12:07Z
2026-08-31 01:18:07,11.9,13.4,1001.8,South,180,0,0,76.3,0.0,,,0.0,2,0,n/a,2026-08-30T23:18:07Z
2026-08-31 01:24:03,12,13.4,1001.8,SW,225,1,1.7,76.5,0.0,,,0.0,2,0,n/a,2026-08-30T23:24:03Z
2026-08-31 01:27:07,12.1,13.3,1001.5,SSW,202,0,0,76.7,0.0,,,0.0,0,0,n/a,2026-08-30T23:27:07Z
2026-08-31 01:33:07,11.8,13.3,1001.8,SW,225,0,0,76.9,0.0,,,0.0,2,0,n/a,2026-08-30T23:33:07Z
2026-08-31 01:39:03,11.8,13.3,1001.5,SSW,202,0,0,77.1,0.0,,,0.0,2,0,n/a,2026-08-30T23:39:03Z
2026-08-31 01:42:07,11.7,13.2,1001.5,SSW,202,0,0,77.4,0.0,,,0.0,0,0,n/a,2026-08-30T23:42:07Z
2026-08-31 01:48:06,11.4,13.1,1001.5,SSW,202,0,0,76.8,0.0,,,0.0,2,0,n/a,2026-08-30T23:48:06Z
2026-08-31 01:51:06,11.5,13.1,1001.3,SSW,202,0,0,77.1,0.0,,,0.0,0,0,n/a,2026-08-30T23:51:06Z
2026-08-31 01:57:07,11.5,13,1001.3,SW,225,0.9,1.3,77,0.0,,,0.0,0,0,n/a,2026-08-30T23:57:07Z
2026-08-31 02:03:07,11.6,12.9,1001.3,SW,225,0,0,76.9,0.0,,,0.0,2,0,n/a,2026-08-31T00:03:07Z
2026-08-31 02:09:03,11.6,13,1001.3,SSW,202,0.4,0.7,77.6,0.0,,,0.0,2,0,n/a,2026-08-31T00:09:03Z
2026-08-31 02:12:07,11.7,13.1,1001.3,SSW,202,0,0,78,0.0,,,0.0,2,0,n/a,2026-08-31T00:12:07Z
2026-08-31 02:18:07,11.5,13,1001.3,SSW,202,0,0,77.9,0.0,,,0.0,0,0,n/a,2026-08-31T00:18:07Z
2026-08-31 02:24:07,11.4,13,1001.3,NW,307,0.4,0.7,77.7,0.0,,,0.0,2,0,n/a,2026-08-31T00:24:07Z
2026-08-31 02:27:07,11.2,12.9,1001.3,NE,49,0.6,0.6,78,0.0,,,0.0,0,0,n/a,2026-08-31T00:27:07Z
2026-08-31 02:33:03,11.3,12.8,1001.3,East,90,0,0,77.9,0.0,,,0.0,2,0,n/a,2026-08-31T00:33:03Z
2026-08-31 02:39:07,11.4,12.9,1001.0,East,90,0,0,78.5,0.0,,,0.0,2,0,n/a,2026-08-31T00:39:07Z
2026-08-31 02:42:06,11.4,12.9,1000.8,East,90,0,0,78.7,0.0,,,0.0,2,0,n/a,2026-08-31T00:42:06Z
2026-08-31 02:48:08,11.4,12.8,1000.8,East,90,0,0,78.5,0.0,,,0.0,0,0,n/a,2026-08-31T00:48:08Z
2026-08-31 02:54:03,11.6,12.9,1000.8,North,0,0,0,78.9,0.0,,,0.0,2,0,n/a,2026-08-31T00:54:03Z
2026-08-31 02:57:07,11.7,13,1000.8,East,90,0,0,79.3,0.0,,,0.0,2,0,n/a,2026-08-31T00:57:07Z
2026-08-31 03:03:07,11.8,13.1,1000.8,East,90,0,0,79.6,0.0,,,0.0,0,0,n/a,2026-08-31T01:03:07Z
2026-08-31 03:09:07,11.8,13.1,1000.5,East,90,0,0,80,0.0,,,0.0,2,0,n/a,2026-08-31T01:09:07Z
2026-08-31 03:12:07,11.8,13.2,1000.5,NE,39,0.6,0.7,80,0.0,,,0.0,0,0,n/a,2026-08-31T01:12:07Z
2026-08-31 03:18:07,12,13.1,1000.8,NNW,337,0.3,0.7,79.9,0.0,,,0.0,0,0,n/a,2026-08-31T01:18:07Z
2026-08-31 03:24:07,12.1,13.2,1000.5,NNW,337,0,0,80.4,0.0,,,0.0,0,0,n/a,2026-08-31T01:24:07Z
2026-08-31 03:27:07,12.2,13.4,1000.3,NNW,337,0,0,81,0.0,,,0.0,2,0,n/a,2026-08-31T01:27:07Z
2026-08-31 03:33:07,12.2,13.3,1000.3,NNW,337,0,0,80.7,0.0,,,0.0,2,0,n/a,2026-08-31T01:33:07Z
2026-08-31 03:39:03,12.1,13.3,1000.3,North,0,0,0,80.6,0.0,,,0.0,2,0,n/a,2026-08-31T01:39:03Z
2026-08-31 03:42:07,12.3,13.4,1000.3,North,0,0,0,80.9,0.0,,,0.0,0,0,n/a,2026-08-31T01:42:07Z
2026-08-31 03:48:07,12.3,13.5,1000.3,North,0,0,0,81.3,0.0,,,0.0,2,0,n/a,2026-08-31T01:48:07Z
2026-08-31 03:54:07,12.4,13.5,1000.0,North,0,0,0,81.2,0.0,,,0.0,2,0,n/a,2026-08-31T01:54:07Z
2026-08-31 03:57:03,12.4,13.7,999.8,North,0,0,0,81.6,0.0,,,0.0,2,0,n/a,2026-08-31T01:57:03Z
2026-08-31 04:03:07,12.5,13.6,999.8,North,0,0,0,81.5,0.0,,,0.0,2,0,n/a,2026-08-31T02:03:07Z
2026-08-31 04:09:07,12.7,13.6,1000.0,South,180,0.9,2,81.8,0.0,,,0.0,2,0,n/a,2026-08-31T02:09:07Z
2026-08-31 04:12:03,12.8,13.8,1000.0,South,180,0.6,0.7,82.6,0.0,,,0.0,0,0,n/a,2026-08-31T02:12:03Z
2026-08-31 04:18:07,12.8,13.8,1000.0,North,0,1,2.2,82.3,0.0,,,0.0,2,0,n/a,2026-08-31T02:18:07Z
2026-08-31 04:24:07,12.9,13.8,1000.0,North,0,1.5,3.3,82.4,0.0,,,0.0,2,0,n/a,2026-08-31T02:24:07Z
2026-08-31 04:27:03,13,13.9,1000.3,North,0,0,0,82.7,0.0,,,0.0,2,0,n/a,2026-08-31T02:27:03Z
2026-08-31 04:33:07,13.1,13.9,1000.3,North,0,0,0,82.4,0.0,,,0.0,2,0,n/a,2026-08-31T02:33:07Z
2026-08-31 04:39:07,13.2,13.9,1000.3,North,0,0.6,1.6,82,0.0,,,0.0,2,0,n/a,2026-08-31T02:39:07Z
2026-08-31 04:42:07,13.2,13.9,1000.3,West,270,1.8,2,82.2,0.0,,,0.0,2,0,n/a,2026-08-31T02:42:07Z
2026-08-31 04:48:06,13.5,14.1,1000.8,West,279,2.5,4.6,82.8,0.0,,,0.0,2,0,n/a,2026-08-31T02:48:06Z
2026-08-31 04:54:07,14.1,14.5,1000.5,NW,324,5.9,6.9,84.2,0.0,,,0.0,2,0,n/a,2026-08-31T02:54:07Z
2026-08-31 04:57:07,14.3,14.6,1000.8,NW,315,8.3,8.4,84.9,0.0,,,0.0,2,0,n/a,2026-08-31T02:57:07Z
2026-08-31 05:03:07,14.3,14.7,1000.8,NW,315,4.4,5.2,84.3,0.0,,,0.0,2,0,n/a,2026-08-31T03:03:07Z
2026-08-31 05:09:07,14.5,15,1000.8,NNW,336,5.1,5.5,85.5,0.0,,,0.0,2,0,n/a,2026-08-31T03:09:07Z
2026-08-31 05:12:07,14.5,15,1000.8,NW,325,1.8,1.9,85.2,0.0,,,0.0,2,0,n/a,2026-08-31T03:12:07Z
2026-08-31 05:18:03,14.5,15.1,1000.5,NNW,339,0.8,1.3,85.1,0.0,,,0.5,2,0,n/a,2026-08-31T03:18:03Z
2026-08-31 05:24:07,14.5,15.1,1000.8,WNW,296,2,2.6,85.2,0.0,,,0.5,2,0,n/a,2026-08-31T03:24:07Z
2026-08-31 05:27:07,14.5,15.3,1000.8,South,180,2.1,2.2,86.4,0.0,,,0.5,2,0,n/a,2026-08-31T03:27:07Z
2026-08-31 05:33:07,14.4,15.4,1000.8,SE,135,0,0,86.2,0.0,,,1.0,2,0,n/a,2026-08-31T03:33:07Z
2026-08-31 05:39:07,14.2,15.4,1000.5,ENE,77,2,3.3,86.1,0.0,,,1.0,0,0,n/a,2026-08-31T03:39:07Z
2026-08-31 05:42:07,14.1,15.4,1000.5,SE,135,1.5,2,86.2,0.0,,,1.0,2,0,n/a,2026-08-31T03:42:07Z
2026-08-31 05:48:07,14.1,15.3,1000.5,East,85,2.4,2.7,86.6,0.0,,,1.0,2,0,n/a,2026-08-31T03:48:07Z
2026-08-31 05:54:07,14,15.3,1000.3,East,90,3.3,3.7,86.9,0.0,,,1.0,0,0,n/a,2026-08-31T03:54:07Z
2026-08-31 05:57:07,14,15.3,1000.3,East,90,4.6,4.8,86.9,0.0,,,1.0,2,0,n/a,2026-08-31T03:57:07Z